sensor_id;sensor_type;location;lat;lon;timestamp;P1;durP1;ratioP1;P2;durP2;ratioP2
62121;SDS011;48108;47.532;19.084;2024-01-30T05:04:27;1999.90;;;720.40;;
62121;SDS011;48108;47.532;19.084;2024-01-30T05:07:31;1999.90;;;807.13;;
62121;SDS011;48108;47.532;19.084;2024-01-30T05:10:34;1999.90;;;821.55;;
62121;SDS011;48108;47.532;19.084;2024-01-30T05:13:37;1999.90;;;770.55;;
62121;SDS011;48108;47.532;19.084;2024-01-30T05:16:40;1999.90;;;862.95;;
62121;SDS011;48108;47.532;19.084;2024-01-30T05:19:44;1999.90;;;821.80;;
62121;SDS011;48108;47.532;19.084;2024-01-30T05:22:47;1999.90;;;812.85;;
62121;SDS011;48108;47.532;19.084;2024-01-30T05:25:50;1999.90;;;813.12;;
62121;SDS011;48108;47.532;19.084;2024-01-30T05:28:53;1999.90;;;811.67;;
62121;SDS011;48108;47.532;19.084;2024-01-30T05:31:56;1999.90;;;810.80;;
62121;SDS011;48108;47.532;19.084;2024-01-30T05:34:59;1999.90;;;847.03;;
62121;SDS011;48108;47.532;19.084;2024-01-30T05:38:02;1999.90;;;825.70;;
62121;SDS011;48108;47.532;19.084;2024-01-30T05:41:05;1999.90;;;815.72;;
62121;SDS011;48108;47.532;19.084;2024-01-30T05:44:09;1999.90;;;837.03;;
62121;SDS011;48108;47.532;19.084;2024-01-30T05:47:11;1999.90;;;788.67;;
62121;SDS011;48108;47.532;19.084;2024-01-30T05:50:15;1999.90;;;817.75;;
62121;SDS011;48108;47.532;19.084;2024-01-30T05:53:17;1999.90;;;846.15;;
62121;SDS011;48108;47.532;19.084;2024-01-30T05:56:21;1999.90;;;851.65;;
62121;SDS011;48108;47.532;19.084;2024-01-30T05:59:23;1999.90;;;849.28;;
62121;SDS011;48108;47.532;19.084;2024-01-30T06:02:26;1999.90;;;790.20;;
62121;SDS011;48108;47.532;19.084;2024-01-30T06:05:30;1999.90;;;816.65;;
62121;SDS011;48108;47.532;19.084;2024-01-30T06:08:33;1999.90;;;829.97;;
62121;SDS011;48108;47.532;19.084;2024-01-30T06:11:36;1999.90;;;819.05;;
62121;SDS011;48108;47.532;19.084;2024-01-30T06:14:39;1999.90;;;796.12;;
62121;SDS011;48108;47.532;19.084;2024-01-30T06:17:46;1999.90;;;901.42;;
62121;SDS011;48108;47.532;19.084;2024-01-30T06:20:49;1999.90;;;798.10;;
62121;SDS011;48108;47.532;19.084;2024-01-30T06:23:52;1999.90;;;766.70;;
62121;SDS011;48108;47.532;19.084;2024-01-30T06:26:55;1999.90;;;793.78;;
62121;SDS011;48108;47.532;19.084;2024-01-30T06:29:59;1999.90;;;770.65;;
62121;SDS011;48108;47.532;19.084;2024-01-30T06:33:02;1999.90;;;798.62;;
62121;SDS011;48108;47.532;19.084;2024-01-30T06:36:05;1999.90;;;776.85;;
62121;SDS011;48108;47.532;19.084;2024-01-30T06:39:08;1999.90;;;767.70;;
62121;SDS011;48108;47.532;19.084;2024-01-30T06:42:11;1999.90;;;881.17;;
62121;SDS011;48108;47.532;19.084;2024-01-30T06:45:14;1999.90;;;777.50;;
62121;SDS011;48108;47.532;19.084;2024-01-30T06:48:18;1999.90;;;799.88;;
62121;SDS011;48108;47.532;19.084;2024-01-30T06:51:21;1999.90;;;829.87;;
62121;SDS011;48108;47.532;19.084;2024-01-30T06:54:24;1999.90;;;780.92;;
62121;SDS011;48108;47.532;19.084;2024-01-30T06:57:26;1999.90;;;829.28;;
62121;SDS011;48108;47.532;19.084;2024-01-30T07:00:31;1999.90;;;807.08;;
62121;SDS011;48108;47.532;19.084;2024-01-30T07:03:34;1999.90;;;761.05;;
62121;SDS011;48108;47.532;19.084;2024-01-30T07:06:37;1999.90;;;829.22;;
62121;SDS011;48108;47.532;19.084;2024-01-30T07:09:40;1999.90;;;822.97;;
62121;SDS011;48108;47.532;19.084;2024-01-30T07:12:44;1999.90;;;830.17;;
62121;SDS011;48108;47.532;19.084;2024-01-30T07:15:46;1999.90;;;812.28;;
62121;SDS011;48108;47.532;19.084;2024-01-30T07:18:50;1999.90;;;841.60;;
62121;SDS011;48108;47.532;19.084;2024-01-30T07:21:53;1999.90;;;813.40;;
62121;SDS011;48108;47.532;19.084;2024-01-30T07:24:56;1999.90;;;824.25;;
62121;SDS011;48108;47.532;19.084;2024-01-30T07:27:59;1999.90;;;859.25;;
62121;SDS011;48108;47.532;19.084;2024-01-30T07:31:02;1999.90;;;830.60;;
62121;SDS011;48108;47.532;19.084;2024-01-30T07:34:06;1999.90;;;889.00;;
62121;SDS011;48108;47.532;19.084;2024-01-30T07:37:10;1999.90;;;866.22;;
62121;SDS011;48108;47.532;19.084;2024-01-30T07:40:14;1999.90;;;909.55;;
62121;SDS011;48108;47.532;19.084;2024-01-30T07:43:17;1999.90;;;969.42;;
62121;SDS011;48108;47.532;19.084;2024-01-30T07:46:20;1999.90;;;940.45;;
62121;SDS011;48108;47.532;19.084;2024-01-30T07:49:23;1999.90;;;991.33;;
62121;SDS011;48108;47.532;19.084;2024-01-30T07:52:26;1999.90;;;999.90;;
62121;SDS011;48108;47.532;19.084;2024-01-30T07:55:29;1999.90;;;990.25;;
62121;SDS011;48108;47.532;19.084;2024-01-30T07:58:34;1999.90;;;999.45;;
62121;SDS011;48108;47.532;19.084;2024-01-30T08:01:37;1999.90;;;982.58;;
62121;SDS011;48108;47.532;19.084;2024-01-30T08:04:41;1999.90;;;973.00;;
62121;SDS011;48108;47.532;19.084;2024-01-30T08:07:44;1999.90;;;999.90;;
62121;SDS011;48108;47.532;19.084;2024-01-30T08:10:51;1999.90;;;999.90;;
62121;SDS011;48108;47.532;19.084;2024-01-30T08:13:54;1999.90;;;999.90;;
62121;SDS011;48108;47.532;19.084;2024-01-30T08:16:58;1999.90;;;999.90;;
62121;SDS011;48108;47.532;19.084;2024-01-30T08:20:01;1999.90;;;999.90;;
62121;SDS011;48108;47.532;19.084;2024-01-30T08:23:04;1999.90;;;999.90;;
62121;SDS011;48108;47.532;19.084;2024-01-30T08:26:07;1999.90;;;999.90;;
62121;SDS011;48108;47.532;19.084;2024-01-30T08:29:10;1999.90;;;999.90;;
62121;SDS011;48108;47.532;19.084;2024-01-30T08:32:13;1999.90;;;999.90;;
62121;SDS011;48108;47.532;19.084;2024-01-30T08:35:17;1999.90;;;999.90;;
62121;SDS011;48108;47.532;19.084;2024-01-30T08:38:20;1999.90;;;999.90;;
62121;SDS011;48108;47.532;19.084;2024-01-30T08:41:23;1999.90;;;999.90;;
62121;SDS011;48108;47.532;19.084;2024-01-30T08:44:27;1999.90;;;999.90;;
62121;SDS011;48108;47.532;19.084;2024-01-30T08:47:30;1999.90;;;999.90;;
62121;SDS011;48108;47.532;19.084;2024-01-30T08:50:33;1999.90;;;999.90;;
62121;SDS011;48108;47.532;19.084;2024-01-30T08:53:37;1999.90;;;999.90;;
62121;SDS011;48108;47.532;19.084;2024-01-30T08:56:40;1999.90;;;999.90;;
62121;SDS011;48108;47.532;19.084;2024-01-30T08:59:43;1999.90;;;999.90;;
62121;SDS011;48108;47.532;19.084;2024-01-30T09:02:48;1999.90;;;999.90;;
62121;SDS011;48108;47.532;19.084;2024-01-30T09:05:51;1999.90;;;999.90;;
62121;SDS011;48108;47.532;19.084;2024-01-30T09:08:54;1999.90;;;999.90;;
62121;SDS011;48108;47.532;19.084;2024-01-30T09:11:58;1999.90;;;999.90;;
62121;SDS011;48108;47.532;19.084;2024-01-30T09:15:04;1999.90;;;999.90;;
62121;SDS011;48108;47.532;19.084;2024-01-30T09:18:09;1999.90;;;999.90;;
62121;SDS011;48108;47.532;19.084;2024-01-30T09:21:12;1999.90;;;999.90;;
62121;SDS011;48108;47.532;19.084;2024-01-30T09:24:16;1999.90;;;999.90;;
62121;SDS011;48108;47.532;19.084;2024-01-30T09:27:36;1999.90;;;999.90;;
62121;SDS011;48108;47.532;19.084;2024-01-30T09:30:43;1999.90;;;999.90;;
62121;SDS011;48108;47.532;19.084;2024-01-30T09:33:46;1999.90;;;999.90;;
62121;SDS011;48108;47.532;19.084;2024-01-30T09:36:51;1999.90;;;925.60;;
62121;SDS011;48108;47.532;19.084;2024-01-30T09:39:54;1999.90;;;963.20;;
62121;SDS011;48108;47.532;19.084;2024-01-30T09:42:57;1999.90;;;999.90;;
62121;SDS011;48108;47.532;19.084;2024-01-30T09:46:02;1999.90;;;988.60;;
62121;SDS011;48108;47.532;19.084;2024-01-30T09:49:08;1999.90;;;999.90;;
62121;SDS011;48108;47.532;19.084;2024-01-30T09:52:12;1999.90;;;999.90;;
62121;SDS011;48108;47.532;19.084;2024-01-30T09:55:16;1999.90;;;999.62;;
62121;SDS011;48108;47.532;19.084;2024-01-30T09:58:19;1999.90;;;997.50;;
62121;SDS011;48108;47.532;19.084;2024-01-30T10:01:22;1999.90;;;996.03;;
62121;SDS011;48108;47.532;19.084;2024-01-30T10:04:27;1999.90;;;997.50;;
62121;SDS011;48108;47.532;19.084;2024-01-30T10:07:29;1999.90;;;979.60;;
62121;SDS011;48108;47.532;19.084;2024-01-30T10:10:36;1999.90;;;949.80;;
62121;SDS011;48108;47.532;19.084;2024-01-30T10:13:39;1999.90;;;910.42;;
62121;SDS011;48108;47.532;19.084;2024-01-30T10:16:42;1999.90;;;831.30;;
62121;SDS011;48108;47.532;19.084;2024-01-30T10:19:47;1999.90;;;898.17;;
62121;SDS011;48108;47.532;19.084;2024-01-30T10:22:50;1999.90;;;912.97;;
62121;SDS011;48108;47.532;19.084;2024-01-30T10:25:56;1999.90;;;894.85;;
62121;SDS011;48108;47.532;19.084;2024-01-30T10:28:59;1999.90;;;853.53;;
62121;SDS011;48108;47.532;19.084;2024-01-30T10:32:03;1999.90;;;994.33;;
62121;SDS011;48108;47.532;19.084;2024-01-30T10:35:07;1999.90;;;893.33;;
62121;SDS011;48108;47.532;19.084;2024-01-30T10:38:11;1999.90;;;890.65;;
62121;SDS011;48108;47.532;19.084;2024-01-30T10:41:19;1999.90;;;867.60;;
62121;SDS011;48108;47.532;19.084;2024-01-30T10:44:28;1999.90;;;943.78;;
62121;SDS011;48108;47.532;19.084;2024-01-30T10:47:36;1999.90;;;940.28;;
62121;SDS011;48108;47.532;19.084;2024-01-30T10:50:40;1999.90;;;880.58;;
62121;SDS011;48108;47.532;19.084;2024-01-30T10:53:55;1999.90;;;806.83;;
62121;SDS011;48108;47.532;19.084;2024-01-30T10:57:00;1999.90;;;839.33;;
62121;SDS011;48108;47.532;19.084;2024-01-30T11:00:08;1999.90;;;788.12;;
62121;SDS011;48108;47.532;19.084;2024-01-30T11:03:12;1999.90;;;828.22;;
62121;SDS011;48108;47.532;19.084;2024-01-30T11:06:16;1999.90;;;863.17;;
62121;SDS011;48108;47.532;19.084;2024-01-30T11:09:21;1999.90;;;886.65;;
62121;SDS011;48108;47.532;19.084;2024-01-30T11:12:24;1999.90;;;950.60;;
62121;SDS011;48108;47.532;19.084;2024-01-30T11:15:28;1999.90;;;967.83;;
62121;SDS011;48108;47.532;19.084;2024-01-30T11:18:35;1999.90;;;909.08;;
62121;SDS011;48108;47.532;19.084;2024-01-30T11:21:42;1999.90;;;923.40;;
62121;SDS011;48108;47.532;19.084;2024-01-30T11:24:45;1999.90;;;917.78;;
62121;SDS011;48108;47.532;19.084;2024-01-30T11:27:59;1999.90;;;932.87;;
62121;SDS011;48108;47.532;19.084;2024-01-30T11:31:05;1999.90;;;893.75;;
62121;SDS011;48108;47.532;19.084;2024-01-30T11:34:14;1999.90;;;999.90;;
62121;SDS011;48108;47.532;19.084;2024-01-30T11:37:17;1999.90;;;999.90;;
62121;SDS011;48108;47.532;19.084;2024-01-30T11:40:24;1999.90;;;995.58;;
62121;SDS011;48108;47.532;19.084;2024-01-30T11:43:30;1999.90;;;943.13;;
62121;SDS011;48108;47.532;19.084;2024-01-30T11:46:33;1999.90;;;800.28;;
62121;SDS011;48108;47.532;19.084;2024-01-30T11:49:37;1999.90;;;942.08;;
62121;SDS011;48108;47.532;19.084;2024-01-30T11:52:40;1999.90;;;841.13;;
62121;SDS011;48108;47.532;19.084;2024-01-30T11:55:49;1999.90;;;903.78;;
62121;SDS011;48108;47.532;19.084;2024-01-30T11:58:53;1999.90;;;981.77;;
62121;SDS011;48108;47.532;19.084;2024-01-30T12:01:56;1999.90;;;818.97;;
62121;SDS011;48108;47.532;19.084;2024-01-30T12:05:03;1999.90;;;702.65;;
62121;SDS011;48108;47.532;19.084;2024-01-30T12:08:07;1999.90;;;763.87;;
62121;SDS011;48108;47.532;19.084;2024-01-30T12:11:10;1999.90;;;715.33;;
62121;SDS011;48108;47.532;19.084;2024-01-30T12:14:13;1999.90;;;685.53;;
62121;SDS011;48108;47.532;19.084;2024-01-30T12:20:27;1716.20;;;497.20;;
62121;SDS011;48108;47.532;19.084;2024-01-30T12:23:30;1356.43;;;457.08;;
62121;SDS011;48108;47.532;19.084;2024-01-30T12:26:33;1082.95;;;415.30;;
62121;SDS011;48108;47.532;19.084;2024-01-30T12:29:36;866.80;;;329.30;;
62121;SDS011;48108;47.532;19.084;2024-01-30T12:32:43;612.88;;;293.50;;
62121;SDS011;48108;47.532;19.084;2024-01-30T12:35:47;510.30;;;278.23;;
62121;SDS011;48108;47.532;19.084;2024-01-30T12:39:04;391.73;;;216.15;;
62121;SDS011;48108;47.532;19.084;2024-01-30T12:42:07;509.42;;;251.15;;
62121;SDS011;48108;47.532;19.084;2024-01-30T12:45:10;403.17;;;233.02;;
62121;SDS011;48108;47.532;19.084;2024-01-30T12:48:13;331.35;;;223.48;;
62121;SDS011;48108;47.532;19.084;2024-01-30T12:51:16;266.10;;;169.25;;
62121;SDS011;48108;47.532;19.084;2024-01-30T12:54:19;170.93;;;143.87;;
62121;SDS011;48108;47.532;19.084;2024-01-30T12:57:22;164.57;;;130.75;;
62121;SDS011;48108;47.532;19.084;2024-01-30T13:00:26;127.68;;;84.70;;
62121;SDS011;48108;47.532;19.084;2024-01-30T13:03:29;67.90;;;49.30;;
62121;SDS011;48108;47.532;19.084;2024-01-30T13:06:35;36.00;;;29.87;;
62121;SDS011;48108;47.532;19.084;2024-01-30T13:09:38;34.60;;;24.17;;
62121;SDS011;48108;47.532;19.084;2024-01-30T13:12:41;40.63;;;30.62;;
62121;SDS011;48108;47.532;19.084;2024-01-30T13:15:45;72.78;;;57.50;;
62121;SDS011;48108;47.532;19.084;2024-01-30T13:18:48;121.43;;;100.07;;
62121;SDS011;48108;47.532;19.084;2024-01-30T13:21:52;297.05;;;181.60;;
62121;SDS011;48108;47.532;19.084;2024-01-30T13:24:55;328.02;;;228.62;;
62121;SDS011;48108;47.532;19.084;2024-01-30T13:27:57;393.90;;;260.00;;
62121;SDS011;48108;47.532;19.084;2024-01-30T13:31:03;531.42;;;304.17;;
62121;SDS011;48108;47.532;19.084;2024-01-30T13:34:07;833.33;;;374.37;;
62121;SDS011;48108;47.532;19.084;2024-01-30T13:37:11;1196.35;;;461.58;;
62121;SDS011;48108;47.532;19.084;2024-01-30T13:40:13;1877.57;;;625.28;;
62121;SDS011;48108;47.532;19.084;2024-01-30T13:43:18;1999.90;;;691.22;;
62121;SDS011;48108;47.532;19.084;2024-01-30T13:46:21;1999.90;;;793.72;;
62121;SDS011;48108;47.532;19.084;2024-01-30T13:49:24;1999.90;;;835.75;;
62121;SDS011;48108;47.532;19.084;2024-01-30T13:52:27;1999.90;;;947.67;;
62121;SDS011;48108;47.532;19.084;2024-01-30T13:55:39;1999.90;;;999.90;;
62121;SDS011;48108;47.532;19.084;2024-01-30T13:58:42;1999.90;;;984.92;;
62121;SDS011;48108;47.532;19.084;2024-01-30T14:01:46;1999.90;;;999.90;;
62121;SDS011;48108;47.532;19.084;2024-01-30T14:04:49;1999.90;;;999.90;;
62121;SDS011;48108;47.532;19.084;2024-01-30T14:07:52;1999.90;;;949.72;;
62121;SDS011;48108;47.532;19.084;2024-01-30T14:10:57;1999.90;;;999.90;;
62121;SDS011;48108;47.532;19.084;2024-01-30T14:14:00;1999.90;;;999.90;;
62121;SDS011;48108;47.532;19.084;2024-01-30T14:17:03;1999.90;;;999.90;;
62121;SDS011;48108;47.532;19.084;2024-01-30T14:20:09;1999.90;;;999.90;;
62121;SDS011;48108;47.532;19.084;2024-01-30T14:23:13;1999.90;;;999.90;;
62121;SDS011;48108;47.532;19.084;2024-01-30T14:26:18;1999.90;;;999.90;;
62121;SDS011;48108;47.532;19.084;2024-01-30T14:29:21;1999.90;;;999.90;;
62121;SDS011;48108;47.532;19.084;2024-01-30T14:32:24;1999.90;;;999.90;;
62121;SDS011;48108;47.532;19.084;2024-01-30T14:35:30;1999.90;;;973.62;;
62121;SDS011;48108;47.532;19.084;2024-01-30T14:38:33;1999.90;;;999.90;;
62121;SDS011;48108;47.532;19.084;2024-01-30T14:41:37;1999.90;;;988.15;;
62121;SDS011;48108;47.532;19.084;2024-01-30T14:44:41;1999.90;;;999.90;;
62121;SDS011;48108;47.532;19.084;2024-01-30T14:47:46;1999.90;;;999.90;;
62121;SDS011;48108;47.532;19.084;2024-01-30T14:50:49;1999.90;;;999.90;;
62121;SDS011;48108;47.532;19.084;2024-01-30T14:53:55;1999.90;;;999.90;;
62121;SDS011;48108;47.532;19.084;2024-01-30T14:56:58;1999.90;;;999.90;;
62121;SDS011;48108;47.532;19.084;2024-01-30T15:00:02;1999.90;;;999.90;;
62121;SDS011;48108;47.532;19.084;2024-01-30T15:03:05;1999.90;;;999.90;;
62121;SDS011;48108;47.532;19.084;2024-01-30T15:06:09;1999.90;;;999.90;;
62121;SDS011;48108;47.532;19.084;2024-01-30T15:09:14;1999.90;;;999.90;;
62121;SDS011;48108;47.532;19.084;2024-01-30T15:12:19;1999.90;;;999.90;;
62121;SDS011;48108;47.532;19.084;2024-01-30T15:15:24;1999.90;;;999.90;;
62121;SDS011;48108;47.532;19.084;2024-01-30T15:18:32;1999.90;;;999.90;;
62121;SDS011;48108;47.532;19.084;2024-01-30T15:21:35;1999.90;;;999.90;;
62121;SDS011;48108;47.532;19.084;2024-01-30T15:24:38;1999.90;;;999.90;;
62121;SDS011;48108;47.532;19.084;2024-01-30T15:27:41;1999.90;;;997.53;;
62121;SDS011;48108;47.532;19.084;2024-01-30T15:30:44;1999.90;;;999.90;;
62121;SDS011;48108;47.532;19.084;2024-01-30T15:33:48;1999.90;;;999.90;;
62121;SDS011;48108;47.532;19.084;2024-01-30T15:36:51;1999.90;;;999.90;;
62121;SDS011;48108;47.532;19.084;2024-01-30T15:39:56;1999.90;;;999.90;;
62121;SDS011;48108;47.532;19.084;2024-01-30T15:43:00;1999.90;;;999.90;;
62121;SDS011;48108;47.532;19.084;2024-01-30T15:46:03;1999.90;;;999.90;;
62121;SDS011;48108;47.532;19.084;2024-01-30T15:49:09;1999.90;;;999.90;;
62121;SDS011;48108;47.532;19.084;2024-01-30T15:52:12;1999.90;;;999.90;;
62121;SDS011;48108;47.532;19.084;2024-01-30T15:55:19;1999.90;;;999.90;;
62121;SDS011;48108;47.532;19.084;2024-01-30T15:58:24;1999.90;;;999.90;;
62121;SDS011;48108;47.532;19.084;2024-01-30T16:01:29;1999.90;;;999.90;;
62121;SDS011;48108;47.532;19.084;2024-01-30T16:04:33;1999.90;;;999.90;;
62121;SDS011;48108;47.532;19.084;2024-01-30T16:07:36;1999.90;;;999.90;;
62121;SDS011;48108;47.532;19.084;2024-01-30T16:10:40;1999.90;;;999.90;;
62121;SDS011;48108;47.532;19.084;2024-01-30T16:13:43;1999.90;;;999.90;;
62121;SDS011;48108;47.532;19.084;2024-01-30T16:16:46;1999.90;;;999.90;;
62121;SDS011;48108;47.532;19.084;2024-01-30T16:19:49;1999.90;;;999.90;;
62121;SDS011;48108;47.532;19.084;2024-01-30T16:22:55;1999.90;;;999.90;;
62121;SDS011;48108;47.532;19.084;2024-01-30T16:25:57;1999.90;;;999.90;;
62121;SDS011;48108;47.532;19.084;2024-01-30T16:29:01;1999.90;;;999.90;;
62121;SDS011;48108;47.532;19.084;2024-01-30T16:32:03;1999.90;;;999.90;;
62121;SDS011;48108;47.532;19.084;2024-01-30T16:35:07;1999.90;;;999.90;;
62121;SDS011;48108;47.532;19.084;2024-01-30T16:38:10;1999.90;;;999.90;;
62121;SDS011;48108;47.532;19.084;2024-01-30T16:41:13;1999.90;;;999.90;;
62121;SDS011;48108;47.532;19.084;2024-01-30T16:44:16;1999.90;;;999.90;;
62121;SDS011;48108;47.532;19.084;2024-01-30T16:47:19;1999.90;;;999.90;;
62121;SDS011;48108;47.532;19.084;2024-01-30T16:50:22;1999.90;;;999.90;;
62121;SDS011;48108;47.532;19.084;2024-01-30T16:53:25;1999.90;;;999.90;;
